Flugplatz Idar-Oberstein/Göttschied (EDRG)

Hier findest Du alle Informationen zum Flugplatz Idar-Oberstein/Göttschied (EDRG).

Informationen für Piloten zum Flugplatz Idar-Oberstein/Göttschied

Hier findest Du alle relevanten Informationen, die Du als Pilot benötigst, um Idar-Oberstein/Göttschied anzufliegen.

Flugplatz: Idar-Oberstein/Göttschied ICAO-Code: EDRG
Frequenz Turm: 128.360 Mhz GAFOR Gebiet: 44
Frequenz Ground: 128.360 Mhz Mogas: ja
Platzrunde: N 2600 ft Landegebühr: 5 €
Platzhöhe: - Sunrise: 03:26 Uhr UTC
Pisten: 06/24 - 650 m x 50 m, GRAS Sunset: 19:43 Uhr UTC

Mitglieder, die in Idar-Oberstein/Göttschied fliegen

Flugwetter am Flugplatz Idar-Oberstein/Göttschied

Die METAR Information stammen aus EDFH (24.53 km entfernt).

METAR Code:
2020/07/01 19:50
EDFH 011950Z 24005KT 200V270 9999 SCT031 19/14 Q1010

Flugschulen am Flugplatz Idar-Oberstein/Göttschied

Am Flugplatz Idar-Oberstein/Göttschied gibt es leider keine Flugschule.

Benachbarte Flugplätze und Flugschulen

Es gibt 20 weitere Flugplätze in einem Umkreis von 50 km um den Flugplatz Idar-Oberstein/Göttschied.

Jetzt anmelden

Passwort vergessen

Umfrage Archiv

Wären Rettungsgeräte keine Pflicht mehr, würdet Ihr Euer UL trotzdem mit einem ausstatten?

Ja
81.1 %
Nein
18.9 %
Stimmen: 185 | Diskussion
Anzeige: Roland Aircraft
Statistik Alle Mitglieder

Aktuell sind 16 Besucher online.

Anzeige: VFR Sprechfunk Simulator


Anzeige: Pocket FMS